createdAt,value
2019-03-03T00:01:34.653Z,11.13
2019-03-03T00:04:01.350Z,11.50
2019-03-03T00:06:28.131Z,8.37
2019-03-03T00:08:54.835Z,11.17
2019-03-03T00:11:21.536Z,9.00
2019-03-03T00:13:48.231Z,10.17
2019-03-03T00:16:14.919Z,9.37
2019-03-03T00:18:41.603Z,9.07
2019-03-03T00:21:08.307Z,9.70
2019-03-03T00:23:35.008Z,11.27
2019-03-03T00:26:01.716Z,12.20
2019-03-03T00:28:28.411Z,10.77
2019-03-03T00:30:55.111Z,11.03
2019-03-03T00:33:21.815Z,12.27
2019-03-03T00:35:48.619Z,8.23
2019-03-03T00:38:37.954Z,12.87
2019-03-03T00:41:18.431Z,9.13
2019-03-03T00:44:04.130Z,8.60
2019-03-03T00:46:48.952Z,8.37
2019-03-03T00:49:24.527Z,9.67
2019-03-03T00:52:00.391Z,13.73
2019-03-03T00:54:45.180Z,13.10
2019-03-03T00:57:25.429Z,12.90
2019-03-03T01:00:14.764Z,10.80
2019-03-03T01:03:06.817Z,11.27
2019-03-03T01:05:40.903Z,13.60
2019-03-03T01:08:16.069Z,12.63
2019-03-03T01:10:54.987Z,12.23
2019-03-03T01:13:30.391Z,10.40
2019-03-03T01:16:10.772Z,12.73
2019-03-03T01:18:51.662Z,8.77
2019-03-03T01:21:35.808Z,10.53
2019-03-03T01:24:13.936Z,11.57
2019-03-03T01:26:40.727Z,9.33
2019-03-03T01:29:07.431Z,9.97
2019-03-03T01:31:34.120Z,9.37
2019-03-03T01:34:00.832Z,8.80
2019-03-03T01:36:27.540Z,11.17
2019-03-03T01:38:54.347Z,11.10
2019-03-03T01:41:21.046Z,10.07
2019-03-03T01:43:47.738Z,11.43
2019-03-03T01:46:14.435Z,10.03
2019-03-03T01:49:00.884Z,9.80
2019-03-03T01:51:27.583Z,11.60
2019-03-03T01:53:54.270Z,12.03
2019-03-03T01:56:20.963Z,10.13
2019-03-03T01:58:47.660Z,9.80
2019-03-03T02:01:14.363Z,11.67
2019-03-03T02:03:41.051Z,12.57
2019-03-03T02:06:08.436Z,11.27
2019-03-03T02:08:35.139Z,11.50
2019-03-03T02:11:02.039Z,9.90
2019-03-03T02:13:28.931Z,10.93
2019-03-03T02:15:55.815Z,13.50
2019-03-03T02:18:22.611Z,11.43
2019-03-03T02:20:49.415Z,13.80
2019-03-03T02:23:16.106Z,13.63
2019-03-03T02:25:42.883Z,14.07
2019-03-03T02:28:09.676Z,14.97
2019-03-03T02:30:36.564Z,16.63
2019-03-03T02:33:03.466Z,12.97
2019-03-03T02:35:30.259Z,9.27
2019-03-03T02:37:57.056Z,16.47
2019-03-03T02:40:23.831Z,14.20
2019-03-03T02:42:50.645Z,10.97
2019-03-03T02:45:18.146Z,11.17
2019-03-03T02:47:44.840Z,11.50
2019-03-03T02:50:11.695Z,12.13
2019-03-03T02:52:38.392Z,14.40
2019-03-03T02:55:06.839Z,18.07
2019-03-03T02:57:33.536Z,10.50
2019-03-03T03:00:00.424Z,14.77
2019-03-03T03:02:45.437Z,14.27
2019-03-03T03:05:15.168Z,18.73
2019-03-03T03:07:46.968Z,13.80
2019-03-03T03:10:26.109Z,15.43
2019-03-03T03:13:06.224Z,12.97
2019-03-03T03:15:47.235Z,16.07
2019-03-03T03:18:36.175Z,12.97
2019-03-03T03:21:25.721Z,15.87
2019-03-03T03:24:05.922Z,15.20
2019-03-03T03:26:41.172Z,15.23
2019-03-03T03:29:30.259Z,16.03
2019-03-03T03:32:25.408Z,12.50
2019-03-03T03:35:11.765Z,15.73
2019-03-03T03:38:02.133Z,13.83
2019-03-03T03:40:57.845Z,19.50
2019-03-03T03:43:41.490Z,16.50
2019-03-03T03:46:28.607Z,16.20
2019-03-03T03:49:04.275Z,19.63
2019-03-03T03:51:56.649Z,17.77
2019-03-03T03:54:38.724Z,13.30
2019-03-03T03:57:24.604Z,15.20
2019-03-03T04:00:08.860Z,16.60
2019-03-03T04:02:59.428Z,12.33
2019-03-03T04:05:51.673Z,20.30
2019-03-03T04:08:44.184Z,17.13
2019-03-03T04:11:25.710Z,14.70
2019-03-03T04:14:08.335Z,18.70
2019-03-03T04:16:46.596Z,20.80
2019-03-03T04:19:33.948Z,15.33
2019-03-03T04:22:29.008Z,14.60
2019-03-03T04:25:15.387Z,16.07
2019-03-03T04:28:01.043Z,19.37
2019-03-03T04:30:48.669Z,16.93
2019-03-03T04:33:36.933Z,15.77
2019-03-03T04:36:21.811Z,19.70
2019-03-03T04:38:55.175Z,22.40
2019-03-03T04:41:32.362Z,20.33
2019-03-03T04:44:13.032Z,18.83
2019-03-03T04:46:57.871Z,18.70
2019-03-03T04:49:43.984Z,20.83
2019-03-03T04:52:28.035Z,19.27
2019-03-03T04:55:12.733Z,18.33
2019-03-03T04:57:57.876Z,14.27
2019-03-03T05:00:53.504Z,18.60
2019-03-03T05:03:49.307Z,18.80
2019-03-03T05:06:24.431Z,19.83
2019-03-03T05:09:14.626Z,22.60
2019-03-03T05:12:31.679Z,21.53
2019-03-03T05:15:20.885Z,20.23
2019-03-03T05:17:52.587Z,15.60
2019-03-03T05:20:19.391Z,23.37
2019-03-03T05:22:46.119Z,20.60
2019-03-03T05:25:12.807Z,23.80
2019-03-03T05:27:39.539Z,18.60
2019-03-03T05:30:06.435Z,19.33
2019-03-03T05:32:33.155Z,24.10
2019-03-03T05:34:59.852Z,18.60
2019-03-03T05:37:26.560Z,20.47
2019-03-03T05:39:53.263Z,29.33
2019-03-03T05:42:19.963Z,18.93
2019-03-03T05:44:46.655Z,22.47
2019-03-03T05:47:13.359Z,20.70
2019-03-03T05:49:40.066Z,21.87
2019-03-03T05:52:06.767Z,18.27
2019-03-03T05:54:33.450Z,18.07
2019-03-03T05:57:00.151Z,22.03
2019-03-03T05:59:26.852Z,20.97
2019-03-03T06:01:53.551Z,17.60
2019-03-03T06:04:20.353Z,20.27
2019-03-03T06:06:47.253Z,19.03
2019-03-03T06:09:14.000Z,21.93
2019-03-03T06:11:40.755Z,19.70
2019-03-03T06:14:07.467Z,19.67
2019-03-03T06:16:34.155Z,20.77
2019-03-03T06:19:00.863Z,23.67
2019-03-03T06:21:27.563Z,20.33
2019-03-03T06:23:54.258Z,21.03
2019-03-03T06:26:20.949Z,17.27
2019-03-03T06:28:47.673Z,20.23
2019-03-03T06:31:14.388Z,21.77
2019-03-03T06:33:41.090Z,21.50
2019-03-03T06:36:07.791Z,19.00
2019-03-03T06:38:34.595Z,19.67
2019-03-03T06:41:01.279Z,18.57
2019-03-03T06:43:27.984Z,23.37
2019-03-03T06:45:54.791Z,18.90
2019-03-03T06:48:21.502Z,22.70
2019-03-03T06:50:48.199Z,25.13
2019-03-03T06:53:14.891Z,21.80
2019-03-03T06:55:41.615Z,17.73
2019-03-03T06:58:08.320Z,20.70
2019-03-03T07:00:35.028Z,19.07
2019-03-03T07:03:01.827Z,16.87
2019-03-03T07:05:28.528Z,22.03
2019-03-03T07:07:55.219Z,24.37
2019-03-03T07:10:21.935Z,16.17
2019-03-03T07:12:48.647Z,21.80
2019-03-03T07:15:15.391Z,18.87
2019-03-03T07:17:42.184Z,22.33
2019-03-03T07:20:09.440Z,20.30
2019-03-03T07:22:36.256Z,18.47
2019-03-03T07:25:03.939Z,22.80
2019-03-03T07:27:30.635Z,22.20
2019-03-03T07:29:57.663Z,23.10
2019-03-03T07:32:24.364Z,20.33
2019-03-03T07:34:51.071Z,22.20
2019-03-03T07:37:17.772Z,22.93
2019-03-03T07:39:44.483Z,25.93
2019-03-03T07:42:11.183Z,22.53
2019-03-03T07:44:37.889Z,18.53
2019-03-03T07:47:04.587Z,23.30
2019-03-03T07:49:31.291Z,23.23
2019-03-03T07:51:58.096Z,24.23
2019-03-03T07:54:24.790Z,24.83
2019-03-03T07:56:51.916Z,21.73
2019-03-03T07:59:18.611Z,23.93
2019-03-03T08:01:45.307Z,21.87
2019-03-03T08:04:12.014Z,20.03
2019-03-03T08:06:38.717Z,20.60
2019-03-03T08:09:07.015Z,22.63
2019-03-03T08:11:33.712Z,25.93
2019-03-03T08:14:00.411Z,20.17
2019-03-03T08:16:27.112Z,21.47
2019-03-03T08:18:53.911Z,22.73
2019-03-03T08:21:20.607Z,18.70
2019-03-03T08:23:47.315Z,23.20
2019-03-03T08:26:14.015Z,17.77
2019-03-03T08:28:40.943Z,18.00
2019-03-03T08:31:07.647Z,20.50
2019-03-03T08:33:34.455Z,17.80
2019-03-03T08:36:01.161Z,16.33
2019-03-03T08:38:27.968Z,19.27
2019-03-03T08:40:54.685Z,21.70
2019-03-03T08:43:56.175Z,14.97
2019-03-03T08:46:34.256Z,19.10
2019-03-03T08:49:07.089Z,22.13
2019-03-03T08:52:11.759Z,16.47
2019-03-03T08:54:58.446Z,19.60
2019-03-03T08:57:56.751Z,16.40
2019-03-03T09:00:43.231Z,14.47
2019-03-03T09:03:35.457Z,15.67
2019-03-03T09:06:21.843Z,17.37
2019-03-03T09:08:57.095Z,18.00
2019-03-03T09:11:32.867Z,16.07
2019-03-03T09:14:15.275Z,21.63
2019-03-03T09:17:00.349Z,16.13
2019-03-03T09:19:45.127Z,14.77
2019-03-03T09:22:37.468Z,16.37
2019-03-03T09:25:27.432Z,17.30
2019-03-03T09:28:03.906Z,13.87
2019-03-03T09:30:52.963Z,13.00
2019-03-03T09:33:45.319Z,14.80
2019-03-03T09:36:34.784Z,14.97
2019-03-03T09:39:21.595Z,16.13
2019-03-03T09:42:03.210Z,13.23
2019-03-03T09:44:42.215Z,16.93
2019-03-03T09:47:27.284Z,14.67
2019-03-03T09:50:13.643Z,12.43
2019-03-03T09:52:48.716Z,15.77
2019-03-03T09:55:33.165Z,15.20
2019-03-03T09:58:19.542Z,15.23
2019-03-03T10:01:08.220Z,11.83
2019-03-03T10:03:44.072Z,14.97
2019-03-03T10:06:30.951Z,12.20
2019-03-03T10:09:15.923Z,11.97
2019-03-03T10:11:49.111Z,14.67
2019-03-03T10:14:35.475Z,15.63
2019-03-03T10:17:08.204Z,13.03
2019-03-03T10:19:55.795Z,13.10
2019-03-03T10:22:45.043Z,12.30
2019-03-03T10:25:43.151Z,12.33
2019-03-03T10:28:26.122Z,12.83
2019-03-03T10:31:21.453Z,10.60
2019-03-03T10:34:03.599Z,11.50
2019-03-03T10:36:48.641Z,13.63
2019-03-03T10:39:44.142Z,8.50
2019-03-03T10:42:22.467Z,13.03
2019-03-03T10:45:13.441Z,13.20
2019-03-03T10:47:46.643Z,13.00
2019-03-03T10:50:40.707Z,13.03
2019-03-03T10:53:21.938Z,12.57
2019-03-03T10:55:57.144Z,10.57
2019-03-03T10:58:46.078Z,12.83
2019-03-03T11:01:29.539Z,12.83
2019-03-03T11:04:24.763Z,11.23
2019-03-03T11:06:59.275Z,16.50
2019-03-03T11:09:55.069Z,11.40
2019-03-03T11:12:53.861Z,12.40
2019-03-03T11:15:44.770Z,13.17
2019-03-03T11:18:43.435Z,14.20
2019-03-03T11:21:25.763Z,14.93
2019-03-03T11:24:01.014Z,14.77
2019-03-03T11:26:56.355Z,14.50
2019-03-03T11:29:37.115Z,12.33
2019-03-03T11:32:13.544Z,11.13
2019-03-03T11:34:49.418Z,16.30
2019-03-03T11:37:22.732Z,16.57
2019-03-03T11:40:10.347Z,15.20
2019-03-03T11:42:53.304Z,15.50
2019-03-03T11:45:39.463Z,12.40
2019-03-03T11:48:14.799Z,16.20
2019-03-03T11:50:47.253Z,12.10
2019-03-03T11:53:26.815Z,11.27
2019-03-03T11:56:13.519Z,16.23
2019-03-03T11:59:00.229Z,19.47
2019-03-03T12:01:42.224Z,15.33
2019-03-03T12:04:16.745Z,16.93
2019-03-03T12:07:06.027Z,18.10
2019-03-03T12:09:49.028Z,16.53
2019-03-03T12:12:38.415Z,18.30
2019-03-03T12:15:16.719Z,16.30
2019-03-03T12:18:12.339Z,15.00
2019-03-03T12:20:54.315Z,18.07
2019-03-03T12:23:39.076Z,17.00
2019-03-03T12:26:13.521Z,17.63
2019-03-03T12:29:08.703Z,19.57
2019-03-03T12:31:45.505Z,23.57
2019-03-03T12:34:20.467Z,20.60
2019-03-03T12:37:16.004Z,16.33
2019-03-03T12:40:06.640Z,20.60
2019-03-03T12:42:56.637Z,21.93
2019-03-03T12:45:46.143Z,20.53
2019-03-03T12:48:25.756Z,18.90
2019-03-03T12:51:23.854Z,18.87
2019-03-03T12:54:04.084Z,25.43
2019-03-03T12:56:40.268Z,18.47
2019-03-03T12:59:19.071Z,16.97
2019-03-03T13:02:14.254Z,18.13
2019-03-03T13:04:59.231Z,25.83
2019-03-03T13:07:38.981Z,22.07
2019-03-03T13:10:37.599Z,21.00
2019-03-03T13:13:13.011Z,20.03
2019-03-03T13:15:56.039Z,18.87
2019-03-03T13:18:45.319Z,18.67
2019-03-03T13:21:22.919Z,22.73
2019-03-03T13:24:04.714Z,19.43
2019-03-03T13:26:44.244Z,18.97
2019-03-03T13:29:26.039Z,22.67
2019-03-03T13:32:03.872Z,21.20
2019-03-03T13:34:59.015Z,19.63
2019-03-03T13:37:44.263Z,20.90
2019-03-03T13:40:18.329Z,21.13
2019-03-03T13:42:56.119Z,23.00
2019-03-03T13:45:23.088Z,20.07
2019-03-03T13:47:49.883Z,17.77
2019-03-03T13:50:17.303Z,19.40
2019-03-03T13:52:44.103Z,18.83
2019-03-03T13:55:11.418Z,19.93
2019-03-03T13:57:38.513Z,20.80
2019-03-03T14:00:07.260Z,15.20
2019-03-03T14:02:33.969Z,19.33
2019-03-03T14:05:00.776Z,19.30
2019-03-03T14:07:27.585Z,22.87
2019-03-03T14:09:54.406Z,19.77
2019-03-03T14:12:21.115Z,16.57
2019-03-03T14:14:47.821Z,18.47
2019-03-03T14:17:14.647Z,18.63
2019-03-03T14:19:41.352Z,18.37
2019-03-03T14:22:08.164Z,23.80
2019-03-03T14:24:34.871Z,14.43
2019-03-03T14:27:10.304Z,18.20
2019-03-03T14:29:30.387Z,17.70
2019-03-03T14:31:57.104Z,18.27
2019-03-03T14:34:24.016Z,18.13
2019-03-03T14:36:50.714Z,18.57
2019-03-03T14:39:17.431Z,22.63
2019-03-03T14:41:44.177Z,17.10
2019-03-03T14:44:10.963Z,19.37
2019-03-03T14:46:37.761Z,16.50
2019-03-03T14:49:04.902Z,15.30
2019-03-03T14:51:31.952Z,11.53
2019-03-03T14:53:58.748Z,19.60
2019-03-03T14:56:25.455Z,16.33
2019-03-03T14:58:52.403Z,20.40
2019-03-03T15:01:19.320Z,17.73
2019-03-03T15:03:46.132Z,17.17
2019-03-03T15:06:12.839Z,17.37
2019-03-03T15:08:39.656Z,15.50
2019-03-03T15:11:06.453Z,14.37
2019-03-03T15:13:33.259Z,16.30
2019-03-03T15:15:59.965Z,17.53
2019-03-03T15:21:00.182Z,14.50
2019-03-03T15:23:26.928Z,19.40
2019-03-03T15:25:53.653Z,16.03
2019-03-03T15:28:20.384Z,14.30
2019-03-03T15:30:47.412Z,16.93
2019-03-03T15:33:14.236Z,17.80
2019-03-03T15:35:41.507Z,17.93
2019-03-03T15:38:08.351Z,14.80
2019-03-03T15:40:35.270Z,16.87
2019-03-03T15:43:02.104Z,12.97
2019-03-03T15:45:29.028Z,15.07
2019-03-03T15:47:55.939Z,12.27
2019-03-03T15:50:22.887Z,13.70
2019-03-03T15:52:49.877Z,13.47
2019-03-03T15:55:16.815Z,13.43
2019-03-03T15:57:43.796Z,13.57
2019-03-03T16:00:13.712Z,16.67
2019-03-03T16:02:40.957Z,17.23
2019-03-03T16:05:08.180Z,16.53
2019-03-03T16:07:35.097Z,14.83
2019-03-03T16:10:02.098Z,13.17
2019-03-03T16:12:28.901Z,16.57
2019-03-03T16:14:55.639Z,14.97
2019-03-03T16:17:22.621Z,17.87
2019-03-03T16:19:49.486Z,15.87
2019-03-03T16:22:16.656Z,16.27
2019-03-03T16:24:43.364Z,18.10
2019-03-03T16:27:10.086Z,14.97
2019-03-03T16:29:36.802Z,13.90
2019-03-03T16:32:03.720Z,16.43
2019-03-03T16:34:30.423Z,15.37
2019-03-03T16:36:57.141Z,14.93
2019-03-03T16:39:23.912Z,14.47
2019-03-03T16:41:50.628Z,13.90
2019-03-03T16:44:17.348Z,16.77
2019-03-03T16:46:44.073Z,17.57
2019-03-03T16:49:10.784Z,16.47
2019-03-03T16:51:37.507Z,15.63
2019-03-03T16:54:04.460Z,15.33
2019-03-03T16:56:31.749Z,10.67
2019-03-03T16:58:58.603Z,15.73
2019-03-03T17:01:25.444Z,14.37
2019-03-03T17:03:52.596Z,16.73
2019-03-03T17:06:19.638Z,13.63
2019-03-03T17:08:46.692Z,15.63
2019-03-03T17:11:13.671Z,11.50
2019-03-03T17:13:40.472Z,16.13
2019-03-03T17:16:07.330Z,14.43
2019-03-03T17:18:34.173Z,15.77
2019-03-03T17:21:02.510Z,12.30
2019-03-03T17:23:29.808Z,12.73
2019-03-03T17:25:56.632Z,13.03
2019-03-03T17:28:23.699Z,14.27
2019-03-03T17:30:50.543Z,14.63
2019-03-03T17:33:17.259Z,15.73
2019-03-03T17:35:43.981Z,15.67
2019-03-03T17:38:10.695Z,11.73
2019-03-03T17:40:37.904Z,13.00
2019-03-03T17:43:04.747Z,10.93
2019-03-03T17:45:31.459Z,11.30
2019-03-03T17:47:58.236Z,16.10
2019-03-03T17:50:24.964Z,13.07
2019-03-03T17:52:51.884Z,11.70
2019-03-03T17:55:18.799Z,17.53
2019-03-03T17:57:45.741Z,15.50
2019-03-03T18:00:15.731Z,13.20
2019-03-03T18:02:42.528Z,11.70
2019-03-03T18:05:09.424Z,10.33
2019-03-03T18:07:36.258Z,13.30
2019-03-03T18:10:04.708Z,13.00
2019-03-03T18:12:31.752Z,10.60
2019-03-03T18:14:58.447Z,12.03
2019-03-03T18:17:25.144Z,13.10
2019-03-03T18:19:51.839Z,12.57
2019-03-03T18:22:18.552Z,16.87
2019-03-03T18:24:45.243Z,16.60
2019-03-03T18:27:12.383Z,12.20
2019-03-03T18:29:39.208Z,14.80
2019-03-03T18:32:06.013Z,17.00
2019-03-03T18:34:32.827Z,17.40
2019-03-03T18:36:59.771Z,18.37
2019-03-03T18:39:26.475Z,14.73
2019-03-03T18:41:53.458Z,16.03
2019-03-03T18:44:20.147Z,12.20
2019-03-03T18:46:46.966Z,12.57
2019-03-03T18:49:13.663Z,15.23
2019-03-03T18:51:40.371Z,12.63
2019-03-03T18:54:07.127Z,11.13
2019-03-03T18:56:36.175Z,13.97
2019-03-03T18:59:03.073Z,12.27
2019-03-03T19:01:29.869Z,11.93
2019-03-03T19:03:56.592Z,14.33
2019-03-03T19:06:23.297Z,11.00
2019-03-03T19:08:50.100Z,12.20
2019-03-03T19:11:16.795Z,10.17
2019-03-03T19:13:43.491Z,10.33
2019-03-03T19:16:10.294Z,16.77
2019-03-03T19:18:37.018Z,10.67
2019-03-03T19:21:03.825Z,8.90
2019-03-03T19:23:30.671Z,9.40
2019-03-03T19:25:57.467Z,10.03
2019-03-03T19:28:24.186Z,9.83
2019-03-03T19:30:50.887Z,11.93
2019-03-03T19:33:24.171Z,13.20
2019-03-03T19:35:51.107Z,11.27
2019-03-03T19:38:17.812Z,10.30
2019-03-03T19:40:44.600Z,13.27
2019-03-03T19:43:11.417Z,11.87
2019-03-03T19:45:38.341Z,13.03
2019-03-03T19:48:05.420Z,12.40
2019-03-03T19:50:32.344Z,13.73
2019-03-03T19:52:59.258Z,13.40
2019-03-03T19:55:25.955Z,11.00
2019-03-03T19:57:52.756Z,12.47
2019-03-03T20:00:23.309Z,11.83
2019-03-03T20:02:50.203Z,9.63
2019-03-03T20:05:17.010Z,10.93
2019-03-03T20:07:43.829Z,12.93
2019-03-03T20:10:11.271Z,13.43
2019-03-03T20:12:38.076Z,11.30
2019-03-03T20:15:06.512Z,10.23
2019-03-03T20:17:33.225Z,11.70
2019-03-03T20:19:59.921Z,11.10
2019-03-03T20:22:26.711Z,10.47
2019-03-03T20:24:53.523Z,10.67
2019-03-03T20:27:20.234Z,10.60
2019-03-03T20:29:47.176Z,11.20
2019-03-03T20:32:13.875Z,12.97
2019-03-03T20:34:40.676Z,11.10
2019-03-03T20:37:07.471Z,8.77
2019-03-03T20:39:34.276Z,9.53
2019-03-03T20:42:00.984Z,10.67
2019-03-03T20:44:27.683Z,6.83
2019-03-03T20:46:54.483Z,9.33
2019-03-03T20:49:21.196Z,11.73
2019-03-03T20:51:47.921Z,10.07
2019-03-03T20:54:14.616Z,10.37
2019-03-03T20:56:41.331Z,10.90
2019-03-03T20:59:08.254Z,10.73
2019-03-03T21:01:34.960Z,6.87
2019-03-03T21:04:01.882Z,11.63
2019-03-03T21:06:28.589Z,12.20
2019-03-03T21:08:55.290Z,10.97
2019-03-03T21:11:22.007Z,11.30
2019-03-03T21:13:48.719Z,10.70
2019-03-03T21:16:15.422Z,10.07
2019-03-03T21:18:42.127Z,9.33
2019-03-03T21:21:08.836Z,10.90
2019-03-03T21:23:35.931Z,8.20
2019-03-03T21:26:02.741Z,9.70
2019-03-03T21:28:29.447Z,7.40
2019-03-03T21:30:56.150Z,9.73
2019-03-03T21:33:22.952Z,10.17
2019-03-03T21:35:49.652Z,10.10
2019-03-03T21:38:16.351Z,8.07
2019-03-03T21:40:43.048Z,7.87
2019-03-03T21:43:09.752Z,7.27
2019-03-03T21:45:36.457Z,7.73
2019-03-03T21:48:03.347Z,7.97
2019-03-03T21:50:30.051Z,9.10
2019-03-03T21:52:56.844Z,7.27
2019-03-03T21:55:23.548Z,10.87
2019-03-03T21:57:50.263Z,7.93
2019-03-03T22:00:19.827Z,6.17
2019-03-03T22:02:46.523Z,8.03
2019-03-03T22:05:13.227Z,6.93
2019-03-03T22:07:40.041Z,5.70
2019-03-03T22:10:07.109Z,8.13
2019-03-03T22:12:33.810Z,9.30
2019-03-03T22:15:00.528Z,9.10
2019-03-03T22:17:27.238Z,5.63
2019-03-03T22:19:53.939Z,6.77
2019-03-03T22:22:20.636Z,7.83
2019-03-03T22:24:47.366Z,6.87
2019-03-03T22:27:14.068Z,7.47
2019-03-03T22:29:40.768Z,6.23
2019-03-03T22:32:07.487Z,7.40
2019-03-03T22:34:34.184Z,5.70
2019-03-03T22:37:00.981Z,6.53
2019-03-03T22:39:27.691Z,6.73
2019-03-03T22:41:54.684Z,5.33
2019-03-03T22:44:21.743Z,7.27
2019-03-03T22:46:48.460Z,6.63
2019-03-03T22:49:15.168Z,7.20
2019-03-03T22:51:41.879Z,6.47
2019-03-03T22:54:08.592Z,7.63
2019-03-03T22:56:35.395Z,7.03
2019-03-03T22:59:02.099Z,6.93
2019-03-03T23:01:33.352Z,6.63
2019-03-03T23:04:18.507Z,5.93
2019-03-03T23:06:49.992Z,7.13
2019-03-03T23:10:13.401Z,7.43
2019-03-03T23:12:48.375Z,6.13
2019-03-03T23:15:29.767Z,6.13
2019-03-03T23:18:11.775Z,8.53
2019-03-03T23:21:05.223Z,7.43
2019-03-03T23:23:43.335Z,6.27
2019-03-03T23:26:16.490Z,7.53
2019-03-03T23:28:38.739Z,6.27
2019-03-03T23:31:05.435Z,7.43
2019-03-03T23:33:32.144Z,5.67
2019-03-03T23:35:58.835Z,5.13
2019-03-03T23:38:25.643Z,5.13
2019-03-03T23:40:52.440Z,7.23
2019-03-03T23:43:19.132Z,6.13
2019-03-03T23:45:45.936Z,6.97
2019-03-03T23:48:13.014Z,5.90
2019-03-03T23:50:39.715Z,6.07
2019-03-03T23:53:06.419Z,7.63
2019-03-03T23:55:33.110Z,5.93
2019-03-03T23:57:59.815Z,5.63
